Chimney Rock, Colorado
Current Conditions -  °F | °C
As of 12:35 PM on Friday 24 Oct 2014 (Local Time) from KPSO Reporting Station
Clear Clear  
Wind Chill: 63°   Ceiling: Unl
Heat Index: 63°   Visibility: 10mi
Dew Point: 28°   Wind: 3mph
Humidity: 27%   Direction: 210°SSW
Pressure: 30.44"   Gusts: NA
Location:  37.22°N, 107.33°W
Report Text: KPSO 241835Z AUTO 21003KT 10SM CLR 17/M02 A3044 RMK AO2 T01701024
Loading
Personal Weather Stations






























Interactive Weather Map
Tropical Storm Tracking
New forecast layout! Learn more

10-Day Weather Forecast

Advertisements
Track Severe Weather on mobile